createdAt,value
2022-09-15T00:01:10.548Z,87.20
2022-09-15T00:03:37.822Z,87.40
2022-09-15T00:06:05.802Z,87.40
2022-09-15T00:08:32.850Z,87.50
2022-09-15T00:11:12.590Z,87.50
2022-09-15T00:13:40.148Z,87.80
2022-09-15T00:16:08.659Z,87.60
2022-09-15T00:18:37.708Z,87.70
2022-09-15T00:21:12.265Z,87.70
2022-09-15T00:23:39.399Z,87.80
2022-09-15T00:26:09.725Z,87.90
2022-09-15T00:28:37.610Z,88.30
2022-09-15T00:31:14.339Z,88.20
2022-09-15T00:33:41.945Z,88.60
2022-09-15T00:36:12.039Z,88.50
2022-09-15T00:38:39.697Z,88.80
2022-09-15T00:41:09.627Z,88.80
2022-09-15T00:44:00.285Z,89.00
2022-09-15T00:46:40.025Z,89.40
2022-09-15T00:49:20.172Z,89.20
2022-09-15T00:51:52.118Z,89.00
2022-09-15T00:54:31.758Z,88.90
2022-09-15T00:57:03.597Z,89.20
2022-09-15T00:59:33.888Z,88.90
2022-09-15T01:02:25.807Z,88.90
2022-09-15T01:04:58.183Z,89.20
2022-09-15T01:07:34.882Z,89.00
2022-09-15T01:10:17.963Z,89.30
2022-09-15T01:12:44.913Z,89.50
2022-09-15T01:15:12.062Z,89.30
2022-09-15T01:18:08.860Z,89.50
2022-09-15T01:21:25.327Z,89.80
2022-09-15T01:24:43.303Z,89.80
2022-09-15T01:27:43.036Z,89.90
2022-09-15T01:30:15.678Z,89.50
2022-09-15T01:33:09.104Z,90.10
2022-09-15T01:36:19.005Z,89.90
2022-09-15T01:39:07.832Z,89.90
2022-09-15T01:42:04.340Z,90.00
2022-09-15T01:44:53.044Z,89.90
2022-09-15T01:47:21.180Z,89.80
2022-09-15T01:49:55.841Z,89.60
2022-09-15T01:52:24.296Z,89.80
2022-09-15T01:54:56.453Z,89.90
2022-09-15T01:57:23.643Z,89.80
2022-09-15T01:59:52.554Z,89.80
2022-09-15T02:02:33.145Z,89.90
2022-09-15T02:05:11.307Z,89.80
2022-09-15T02:08:05.056Z,90.00
2022-09-15T02:10:49.128Z,90.00
2022-09-15T02:13:48.614Z,90.10
2022-09-15T02:16:23.264Z,90.10
2022-09-15T02:19:15.166Z,90.00
2022-09-15T02:21:55.298Z,90.20
2022-09-15T02:24:35.519Z,90.10
2022-09-15T02:27:04.796Z,90.10
2022-09-15T02:29:33.853Z,90.10
2022-09-15T02:32:07.075Z,90.10
2022-09-15T02:34:40.753Z,90.10
2022-09-15T02:37:09.885Z,90.20
2022-09-15T02:39:42.853Z,90.20
2022-09-15T02:42:10.555Z,90.20
2022-09-15T02:44:37.582Z,90.20
2022-09-15T02:47:04.881Z,90.30
2022-09-15T02:49:31.754Z,90.30
2022-09-15T02:51:58.641Z,90.30
2022-09-15T02:54:25.507Z,90.30
2022-09-15T02:56:52.385Z,90.30
2022-09-15T02:59:19.258Z,90.30
2022-09-15T03:01:46.205Z,90.40
2022-09-15T03:04:13.123Z,90.30
2022-09-15T03:06:40.022Z,90.40
2022-09-15T03:09:08.494Z,90.40
2022-09-15T03:11:36.351Z,90.60
2022-09-15T03:14:06.429Z,90.80
2022-09-15T03:16:35.730Z,91.00
2022-09-15T03:19:03.317Z,91.20
2022-09-15T03:21:30.567Z,91.30
2022-09-15T03:23:58.812Z,91.40
2022-09-15T03:26:26.034Z,91.50
2022-09-15T03:28:53.496Z,91.40
2022-09-15T03:31:20.593Z,91.50
2022-09-15T03:33:48.184Z,91.60
2022-09-15T03:36:15.153Z,91.70
2022-09-15T03:38:42.073Z,91.70
2022-09-15T03:41:13.368Z,91.70
2022-09-15T03:43:41.425Z,91.70
2022-09-15T03:46:11.491Z,91.70
2022-09-15T03:48:40.456Z,92.00
2022-09-15T03:51:10.525Z,91.60
2022-09-15T03:53:40.277Z,91.70
2022-09-15T03:56:23.968Z,91.60
2022-09-15T03:58:51.969Z,91.80
2022-09-15T04:01:20.162Z,91.60
2022-09-15T04:03:51.178Z,91.70
2022-09-15T04:06:20.320Z,91.70
2022-09-15T04:08:48.243Z,91.70
2022-09-15T04:11:15.627Z,91.70
2022-09-15T04:13:43.855Z,91.70
2022-09-15T04:16:17.729Z,91.70
2022-09-15T04:18:45.702Z,91.70
2022-09-15T04:21:16.070Z,91.80
2022-09-15T04:23:43.675Z,91.70
2022-09-15T04:26:32.647Z,91.70
2022-09-15T04:29:04.536Z,91.80
2022-09-15T04:31:33.110Z,91.70
2022-09-15T04:34:00.156Z,91.80
2022-09-15T04:36:28.564Z,91.70
2022-09-15T04:38:56.858Z,91.70
2022-09-15T04:41:24.835Z,91.70
2022-09-15T04:43:52.011Z,91.70
2022-09-15T04:46:19.641Z,91.70
2022-09-15T04:48:48.038Z,91.70
2022-09-15T04:51:20.386Z,91.70
2022-09-15T04:53:47.780Z,91.70
2022-09-15T04:56:26.427Z,91.70
2022-09-15T04:59:02.447Z,91.80
2022-09-15T05:01:35.288Z,91.80
2022-09-15T05:04:04.457Z,91.80
2022-09-15T05:06:32.176Z,91.70
2022-09-15T05:08:59.650Z,91.70
2022-09-15T05:11:28.165Z,91.60
2022-09-15T05:13:55.550Z,91.60
2022-09-15T05:16:25.785Z,91.60
2022-09-15T05:18:58.467Z,91.60
2022-09-15T05:21:26.087Z,91.90
2022-09-15T05:23:53.377Z,91.60
2022-09-15T05:26:25.222Z,91.60
2022-09-15T05:28:52.105Z,91.60
2022-09-15T05:31:33.891Z,91.50
2022-09-15T05:34:05.512Z,91.50
2022-09-15T05:36:33.183Z,91.50
2022-09-15T05:39:01.666Z,91.50
2022-09-15T05:41:29.624Z,91.40
2022-09-15T05:43:57.772Z,91.30
2022-09-15T05:46:26.219Z,91.30
2022-09-15T05:48:55.724Z,91.60
2022-09-15T05:51:22.885Z,91.20
2022-09-15T05:53:50.853Z,91.30
2022-09-15T05:56:19.043Z,91.30
2022-09-15T05:58:48.096Z,91.20
2022-09-15T06:01:29.827Z,91.10
2022-09-15T06:03:58.048Z,91.10
2022-09-15T06:06:26.135Z,91.10
2022-09-15T06:08:58.588Z,91.10
2022-09-15T06:11:33.716Z,91.10
2022-09-15T06:14:06.102Z,91.00
2022-09-15T06:16:35.149Z,91.00
2022-09-15T06:19:03.435Z,91.00
2022-09-15T06:21:32.548Z,91.00
2022-09-15T06:24:03.431Z,90.90
2022-09-15T06:26:30.440Z,90.90
2022-09-15T06:29:00.767Z,90.80
2022-09-15T06:31:29.968Z,90.70
2022-09-15T06:33:57.891Z,90.70
2022-09-15T06:36:28.608Z,90.70
2022-09-15T06:38:56.448Z,90.50
2022-09-15T06:41:23.620Z,90.50
2022-09-15T06:43:50.756Z,90.40
2022-09-15T06:46:21.747Z,90.40
2022-09-15T06:48:49.459Z,90.30
2022-09-15T06:51:18.897Z,90.30
2022-09-15T06:53:46.841Z,90.30
2022-09-15T06:56:16.918Z,90.10
2022-09-15T06:58:45.032Z,90.10
2022-09-15T07:01:22.386Z,89.60
2022-09-15T07:03:49.852Z,89.80
2022-09-15T07:06:17.571Z,89.30
2022-09-15T07:08:46.573Z,89.30
2022-09-15T07:11:14.098Z,89.00
2022-09-15T07:13:41.152Z,88.30
2022-09-15T07:16:11.028Z,88.30
2022-09-15T07:18:42.877Z,88.10
2022-09-15T07:21:15.332Z,87.60
2022-09-15T07:23:43.203Z,87.70
2022-09-15T07:26:17.083Z,87.20
2022-09-15T07:28:48.020Z,87.10
2022-09-15T07:31:18.130Z,86.90
2022-09-15T07:33:45.870Z,86.90
2022-09-15T07:36:13.091Z,86.10
2022-09-15T07:38:43.848Z,86.30
2022-09-15T07:41:16.468Z,86.30
2022-09-15T07:43:48.548Z,86.40
2022-09-15T07:46:16.778Z,86.60
2022-09-15T07:48:49.444Z,86.80
2022-09-15T07:51:17.288Z,86.20
2022-09-15T07:53:45.969Z,86.30
2022-09-15T07:56:12.839Z,85.60
2022-09-15T07:58:39.955Z,85.60
2022-09-15T08:01:11.536Z,85.40
2022-09-15T08:03:48.861Z,84.30
2022-09-15T08:06:21.506Z,83.60
2022-09-15T08:08:49.088Z,83.30
2022-09-15T08:11:19.197Z,83.00
2022-09-15T08:13:52.314Z,83.00
2022-09-15T08:16:22.938Z,81.10
2022-09-15T08:18:52.912Z,81.80
2022-09-15T08:21:21.023Z,81.50
2022-09-15T08:23:56.624Z,82.10
2022-09-15T08:26:24.230Z,81.30
2022-09-15T08:28:51.693Z,80.80
2022-09-15T08:31:18.854Z,80.70
2022-09-15T08:33:51.664Z,81.00
2022-09-15T08:36:18.834Z,80.70
2022-09-15T08:38:46.637Z,80.60
2022-09-15T08:41:27.819Z,80.40
2022-09-15T08:44:20.256Z,81.10
2022-09-15T08:47:04.080Z,79.60
2022-09-15T08:49:51.055Z,79.90
2022-09-15T08:52:39.300Z,79.50
2022-09-15T08:55:19.210Z,78.80
2022-09-15T08:57:46.105Z,78.10
2022-09-15T09:00:17.109Z,78.70
2022-09-15T09:03:01.009Z,79.30
2022-09-15T09:06:08.723Z,78.60
2022-09-15T09:09:12.273Z,78.00
2022-09-15T09:12:12.624Z,78.90
2022-09-15T09:15:19.128Z,79.60
2022-09-15T09:18:22.401Z,78.30
2022-09-15T09:20:51.650Z,77.70
2022-09-15T09:23:24.746Z,76.70
2022-09-15T09:25:52.635Z,76.00
2022-09-15T09:28:34.866Z,75.50
2022-09-15T09:31:08.075Z,76.50
2022-09-15T09:33:47.713Z,76.60
2022-09-15T09:36:15.500Z,76.50
2022-09-15T09:38:45.718Z,76.90
2022-09-15T09:41:19.848Z,77.50
2022-09-15T09:43:49.062Z,77.50
2022-09-15T09:46:19.284Z,77.90
2022-09-15T09:49:20.986Z,78.00
2022-09-15T09:52:02.161Z,77.00
2022-09-15T09:54:31.603Z,75.90
2022-09-15T09:57:13.655Z,76.00
2022-09-15T09:59:46.757Z,73.90
2022-09-15T10:02:19.791Z,74.40
2022-09-15T10:04:52.112Z,74.00
2022-09-15T10:07:23.505Z,74.40
2022-09-15T10:09:59.838Z,73.30
2022-09-15T10:12:39.130Z,73.10
2022-09-15T10:15:26.646Z,72.60
2022-09-15T10:17:55.655Z,72.60
2022-09-15T10:20:35.560Z,69.40
2022-09-15T10:23:16.491Z,68.40
2022-09-15T10:25:58.586Z,69.00
2022-09-15T10:28:27.598Z,69.50
2022-09-15T10:31:28.648Z,70.50
2022-09-15T10:33:55.648Z,70.40
2022-09-15T10:36:32.332Z,70.80
2022-09-15T10:39:19.249Z,67.80
2022-09-15T10:42:07.713Z,68.70
2022-09-15T10:44:50.237Z,69.30
2022-09-15T10:48:07.060Z,69.90
2022-09-15T10:51:11.655Z,69.20
2022-09-15T10:53:56.754Z,68.20
2022-09-15T10:56:30.567Z,67.60
2022-09-15T10:59:45.912Z,69.00
2022-09-15T11:02:42.725Z,69.10
2022-09-15T11:05:30.997Z,65.90
2022-09-15T11:08:36.965Z,66.70
2022-09-15T11:11:37.154Z,65.70
2022-09-15T11:14:50.396Z,66.20
2022-09-15T11:17:45.159Z,65.90
2022-09-15T11:20:32.622Z,65.80
2022-09-15T11:23:14.753Z,65.70
2022-09-15T11:25:50.880Z,65.30
2022-09-15T11:28:26.797Z,65.70
2022-09-15T11:31:34.381Z,65.10
2022-09-15T11:34:16.400Z,64.80
2022-09-15T11:37:04.086Z,64.80
2022-09-15T11:39:37.620Z,65.20
2022-09-15T11:42:17.885Z,66.10
2022-09-15T11:44:46.381Z,66.20
2022-09-15T11:47:40.241Z,66.60
2022-09-15T11:50:42.075Z,67.50
2022-09-15T11:53:33.712Z,67.70
2022-09-15T11:56:15.656Z,68.20
2022-09-15T11:59:21.327Z,67.80
2022-09-15T12:02:19.346Z,67.90
2022-09-15T12:05:10.469Z,67.60
2022-09-15T12:07:49.090Z,65.80
2022-09-15T12:10:24.425Z,64.30
2022-09-15T12:12:53.832Z,64.00
2022-09-15T12:15:27.286Z,64.60
2022-09-15T12:18:21.370Z,64.20
2022-09-15T12:21:18.474Z,63.40
2022-09-15T12:24:14.663Z,63.50
2022-09-15T12:26:43.295Z,64.30
2022-09-15T12:29:41.174Z,64.10
2022-09-15T12:32:30.101Z,63.10
2022-09-15T12:35:02.759Z,61.90
2022-09-15T12:37:47.244Z,62.80
2022-09-15T12:40:40.174Z,61.70
2022-09-15T12:43:13.358Z,62.10
2022-09-15T12:45:43.415Z,61.20
2022-09-15T12:48:25.698Z,61.90
2022-09-15T12:51:03.159Z,60.10
2022-09-15T12:56:10.356Z,61.40
2022-09-15T12:58:47.747Z,60.80
2022-09-15T13:01:24.499Z,61.10
2022-09-15T13:03:53.693Z,60.70
2022-09-15T13:06:30.470Z,60.40
2022-09-15T13:09:03.785Z,59.70
2022-09-15T13:11:34.660Z,59.10
2022-09-15T13:14:06.617Z,59.50
2022-09-15T13:16:52.140Z,60.00
2022-09-15T13:19:33.601Z,60.40
2022-09-15T13:22:04.422Z,60.30
2022-09-15T13:25:08.523Z,60.90
2022-09-15T13:27:47.816Z,59.70
2022-09-15T13:30:54.822Z,59.40
2022-09-15T13:40:33.212Z,63.50
2022-09-15T13:43:28.461Z,64.90
2022-09-15T13:46:41.179Z,65.70
2022-09-15T13:49:51.487Z,66.40
2022-09-15T13:52:43.293Z,66.40
2022-09-15T13:55:27.916Z,67.20
2022-09-15T14:00:53.894Z,66.70
2022-09-15T14:03:42.658Z,66.70
2022-09-15T14:06:23.982Z,67.00
2022-09-15T14:08:55.993Z,66.00
2022-09-15T14:11:32.557Z,64.70
2022-09-15T14:14:00.904Z,65.00
2022-09-15T14:16:30.689Z,64.00
2022-09-15T14:19:00.008Z,64.20
2022-09-15T14:21:31.953Z,64.80
2022-09-15T14:24:06.228Z,64.00
2022-09-15T14:26:35.862Z,64.40
2022-09-15T14:29:06.206Z,63.60
2022-09-15T14:31:43.812Z,64.20
2022-09-15T14:34:24.496Z,63.10
2022-09-15T14:37:01.385Z,64.20
2022-09-15T14:39:29.178Z,65.10
2022-09-15T14:41:56.461Z,66.20
2022-09-15T14:47:28.545Z,66.80
2022-09-15T14:50:19.671Z,67.20
2022-09-15T14:53:05.782Z,67.70
2022-09-15T14:55:55.572Z,66.40
2022-09-15T14:58:35.507Z,65.50
2022-09-15T15:01:25.440Z,65.20
2022-09-15T15:03:58.063Z,65.90
2022-09-15T15:06:39.486Z,65.50
2022-09-15T15:09:31.300Z,64.90
2022-09-15T15:12:10.003Z,64.70
2022-09-15T15:14:37.025Z,65.10
2022-09-15T15:17:08.488Z,65.70
2022-09-15T15:19:40.295Z,65.50
2022-09-15T15:22:20.762Z,66.70
2022-09-15T15:24:51.268Z,69.80
2022-09-15T15:27:33.323Z,71.50
2022-09-15T15:30:40.446Z,73.90
2022-09-15T15:33:21.045Z,74.50
2022-09-15T15:36:02.296Z,74.70
2022-09-15T15:38:33.514Z,75.00
2022-09-15T15:41:06.280Z,75.40
2022-09-15T15:43:34.304Z,75.60
2022-09-15T15:46:04.858Z,75.10
2022-09-15T15:48:38.433Z,74.70
2022-09-15T15:51:07.381Z,74.20
2022-09-15T15:53:34.441Z,74.70
2022-09-15T15:56:01.396Z,74.50
2022-09-15T15:58:28.584Z,75.00
2022-09-15T16:00:56.943Z,74.70
2022-09-15T16:03:24.992Z,73.70
2022-09-15T16:05:57.111Z,74.30
2022-09-15T16:08:34.785Z,72.90
2022-09-15T16:11:03.217Z,72.80
2022-09-15T16:13:30.268Z,72.80
2022-09-15T16:16:00.444Z,72.80
2022-09-15T16:18:28.773Z,73.40
2022-09-15T16:20:55.641Z,73.90
2022-09-15T16:23:23.566Z,73.70
2022-09-15T16:26:05.510Z,73.80
2022-09-15T16:28:32.391Z,74.20
2022-09-15T16:30:59.599Z,74.30
2022-09-15T16:33:26.802Z,74.50
2022-09-15T16:36:06.717Z,74.30
2022-09-15T16:38:35.671Z,74.20
2022-09-15T16:41:04.396Z,74.30
2022-09-15T16:43:31.556Z,73.70
2022-09-15T16:45:58.441Z,73.10
2022-09-15T16:48:25.510Z,72.60
2022-09-15T16:53:40.059Z,72.20
2022-09-15T16:56:11.269Z,72.30
2022-09-15T16:58:38.879Z,72.90
2022-09-15T17:01:06.571Z,73.00
2022-09-15T17:03:33.857Z,72.90
2022-09-15T17:06:02.100Z,72.90
2022-09-15T17:08:33.513Z,73.00
2022-09-15T17:11:04.629Z,72.20
2022-09-15T17:13:34.293Z,72.30
2022-09-15T17:16:02.206Z,72.20
2022-09-15T17:18:29.511Z,71.90
2022-09-15T17:20:56.773Z,71.10
2022-09-15T17:23:38.013Z,70.90
2022-09-15T17:26:14.772Z,71.30
2022-09-15T17:28:42.316Z,71.40
2022-09-15T17:31:18.940Z,71.10
2022-09-15T17:33:47.336Z,71.30
2022-09-15T17:36:14.894Z,71.40
2022-09-15T17:38:42.297Z,71.70
2022-09-15T17:41:21.483Z,71.70
2022-09-15T17:43:49.328Z,71.60
2022-09-15T17:46:16.755Z,71.80
2022-09-15T17:48:43.738Z,71.90
2022-09-15T17:51:17.223Z,71.90
2022-09-15T17:53:46.534Z,72.20
2022-09-15T17:56:13.437Z,72.40
2022-09-15T17:58:41.422Z,72.60
2022-09-15T18:01:11.338Z,73.00
2022-09-15T18:03:38.536Z,73.20
2022-09-15T18:06:08.267Z,73.30
2022-09-15T18:08:36.390Z,73.80
2022-09-15T18:11:05.459Z,73.90
2022-09-15T18:13:32.385Z,74.50
2022-09-15T18:16:12.239Z,74.30
2022-09-15T18:18:40.571Z,74.80
2022-09-15T18:21:10.428Z,74.60
2022-09-15T18:23:38.012Z,74.70
2022-09-15T18:26:05.035Z,74.90
2022-09-15T18:28:31.903Z,75.00
2022-09-15T18:30:58.807Z,75.00
2022-09-15T18:33:26.306Z,75.00
2022-09-15T18:35:58.785Z,75.30
2022-09-15T18:38:26.631Z,76.00
2022-09-15T18:40:55.935Z,76.10
2022-09-15T18:43:25.356Z,76.30
2022-09-15T18:45:55.056Z,76.50
2022-09-15T18:48:22.021Z,76.80
2022-09-15T18:50:48.926Z,77.10
2022-09-15T18:53:15.835Z,77.30
2022-09-15T18:55:43.725Z,78.20
2022-09-15T18:58:11.523Z,78.90
2022-09-15T19:00:38.427Z,79.30
2022-09-15T19:03:09.597Z,79.80
2022-09-15T19:05:37.007Z,80.10
2022-09-15T19:08:04.520Z,80.70
2022-09-15T19:10:31.432Z,81.10
2022-09-15T19:12:58.314Z,81.60
2022-09-15T19:15:25.190Z,81.60
2022-09-15T19:17:52.539Z,81.70
2022-09-15T19:20:19.614Z,82.60
2022-09-15T19:22:47.426Z,83.20
2022-09-15T19:25:15.372Z,83.00
2022-09-15T19:27:43.020Z,83.40
2022-09-15T19:30:11.139Z,84.10
2022-09-15T19:32:39.200Z,84.20
2022-09-15T19:35:07.833Z,84.10
2022-09-15T19:37:38.596Z,84.60
2022-09-15T19:40:09.578Z,86.00
2022-09-15T19:42:38.562Z,85.50
2022-09-15T19:45:07.250Z,85.80
2022-09-15T19:47:34.667Z,86.10
2022-09-15T19:50:01.655Z,86.20
2022-09-15T19:52:28.759Z,86.80
2022-09-15T19:54:55.640Z,87.30
2022-09-15T19:57:22.590Z,88.00
2022-09-15T19:59:50.219Z,88.40
2022-09-15T20:02:17.234Z,88.60
2022-09-15T20:04:44.524Z,88.40
2022-09-15T20:07:12.472Z,88.70
2022-09-15T20:09:39.421Z,88.80
2022-09-15T20:12:06.476Z,89.10
2022-09-15T20:14:33.441Z,89.20
2022-09-15T20:17:01.380Z,89.20
2022-09-15T20:19:29.411Z,89.30
2022-09-15T20:21:56.443Z,89.60
2022-09-15T20:24:24.070Z,89.50
2022-09-15T20:26:52.147Z,89.60
2022-09-15T20:29:20.230Z,89.60
2022-09-15T20:31:48.269Z,90.00
2022-09-15T20:34:15.863Z,89.90
2022-09-15T20:36:43.517Z,89.90
2022-09-15T20:39:14.564Z,90.10
2022-09-15T20:41:46.135Z,90.00
2022-09-15T20:44:13.918Z,90.10
2022-09-15T20:46:41.092Z,90.40
2022-09-15T20:49:09.144Z,90.20
2022-09-15T20:51:36.186Z,90.30
2022-09-15T20:54:04.256Z,90.40
2022-09-15T20:56:35.013Z,90.60
2022-09-15T20:59:03.561Z,90.60
2022-09-15T21:01:36.608Z,90.70
2022-09-15T21:04:05.231Z,90.90
2022-09-15T21:06:32.820Z,90.90
2022-09-15T21:09:00.346Z,90.90
2022-09-15T21:11:29.589Z,91.00
2022-09-15T21:13:57.582Z,91.00
2022-09-15T21:16:27.885Z,91.10
2022-09-15T21:18:57.233Z,91.50
2022-09-15T21:21:30.580Z,91.10
2022-09-15T21:24:04.277Z,91.20
2022-09-15T21:27:00.697Z,91.10
2022-09-15T21:29:28.905Z,91.20
2022-09-15T21:31:55.935Z,91.10
2022-09-15T21:34:23.227Z,91.10
2022-09-15T21:36:53.472Z,91.10
2022-09-15T21:39:20.461Z,91.10
2022-09-15T21:41:47.367Z,91.10
2022-09-15T21:44:14.279Z,91.10
2022-09-15T21:46:41.154Z,91.00
2022-09-15T21:49:08.289Z,91.00
2022-09-15T21:51:35.363Z,91.00
2022-09-15T21:54:02.245Z,90.90
2022-09-15T21:56:30.062Z,90.90
2022-09-15T21:58:57.430Z,90.90
2022-09-15T22:01:30.188Z,90.80
2022-09-15T22:04:08.521Z,90.80
2022-09-15T22:06:40.851Z,90.60
2022-09-15T22:09:14.842Z,90.60
2022-09-15T22:11:42.029Z,90.60
2022-09-15T22:14:09.884Z,90.50
2022-09-15T22:16:39.211Z,90.50
2022-09-15T22:19:07.655Z,90.50
2022-09-15T22:21:36.837Z,90.40
2022-09-15T22:24:07.114Z,90.40
2022-09-15T22:26:37.282Z,90.40
2022-09-15T22:29:05.460Z,90.70
2022-09-15T22:31:33.183Z,90.40
2022-09-15T22:34:00.113Z,90.40
2022-09-15T22:36:30.319Z,90.40
2022-09-15T22:39:05.531Z,90.40
2022-09-15T22:41:36.278Z,90.40
2022-09-15T22:44:04.649Z,90.30
2022-09-15T22:46:32.299Z,90.30
2022-09-15T22:48:59.974Z,90.20
2022-09-15T22:51:26.882Z,90.20
2022-09-15T22:53:57.264Z,90.10
2022-09-15T22:56:26.743Z,90.10
2022-09-15T22:58:54.798Z,90.10
2022-09-15T23:01:25.255Z,90.10
2022-09-15T23:03:55.709Z,90.10
2022-09-15T23:06:24.237Z,90.10
2022-09-15T23:09:07.112Z,90.10
2022-09-15T23:11:35.040Z,90.20
2022-09-15T23:14:02.603Z,90.20
2022-09-15T23:16:30.992Z,90.20
2022-09-15T23:18:58.851Z,90.10
2022-09-15T23:21:26.265Z,90.10
2022-09-15T23:23:54.400Z,90.20
2022-09-15T23:26:23.728Z,90.20
2022-09-15T23:28:51.012Z,90.30
2022-09-15T23:31:18.917Z,90.20
2022-09-15T23:33:46.227Z,90.20
2022-09-15T23:36:16.269Z,90.30
2022-09-15T23:38:45.167Z,90.30
2022-09-15T23:41:16.737Z,90.40
2022-09-15T23:43:44.048Z,90.40
2022-09-15T23:46:11.235Z,90.40
2022-09-15T23:48:38.502Z,90.40
2022-09-15T23:51:05.593Z,90.40
2022-09-15T23:53:32.661Z,90.40
2022-09-15T23:56:00.236Z,90.50
2022-09-15T23:58:27.755Z,90.50
